• Join FlightAware (Why Join?)
  • Login
  • US Flag 
09:06PM EDT


 

Airport Tracker/Info


-or-


 

Live Flight TrackerFlight Track Log ✈ N75247 ✈ 18-Jul-2013 ✈ KMTN - KOXB

Flight Track Log - Related Links

Times and Time Zones

All times are in EDT time to prevent confusion due to time zone crossing. See the N75247 flight status page for this flight to view local times or setup timezone preferences in your user account.

Time Position Orientation Groundspeed Altitude Reporting Facility
EDT Latitude Longitude Course Direction KTS MPH feet Rate Location/Type
05:15PM 39.3167 -76.4000 147° Southeast 104 120 1,100  Level Potomac TRACON
05:16PM 39.3000 -76.3667 123° Southeast 112 129 1,800 660 Climbing Potomac TRACON
05:17PM 39.2667 -76.3333 142° Southeast 115 132 2,500 600 Climbing Potomac TRACON
05:18PM 39.2500 -76.3000 123° Southeast 119 137 3,100 360 Climbing Potomac TRACON
05:19PM 39.2167 -76.2833 159° South 142 163 3,300  Climbing Potomac TRACON
05:20PM 39.1833 -76.2333 131° Southeast 150 173 3,200  Descending Potomac TRACON
05:21PM 39.1648 -76.2057 147° Southeast  Level Estimated
05:21PM 39.1500 -76.2167 159° South 145 167 3,300  Level Potomac TRACON
05:22PM 39.1167 -76.1833 142° Southeast 158 182 3,200 -60 Descending Potomac TRACON
05:23PM 39.0833 -76.1500 142° Southeast 153 176 3,200  Level Potomac TRACON
05:24PM 39.0500 -76.1167 142° Southeast 151 174 3,300  Climbing Potomac TRACON
05:25PM 39.0167 -76.0833 142° Southeast 149 171 3,300  Level Potomac TRACON
05:26PM 38.9833 -76.0500 142° Southeast 150 173 3,400  Climbing Potomac TRACON
05:27PM 38.9500 -76.0333 159° South 152 175 3,300 -60 Descending Potomac TRACON
05:29PM 38.8981 -75.9889 146° Southeast 155 178 3,300  Level Washington Center
05:30PM 38.8628 -75.9569 145° Southeast 152 175 3,300  Level Washington Center
05:31PM 38.8275 -75.9275 147° Southeast 151 174 3,300  Level Washington Center
05:33PM 38.7756 -75.8419 128° Southeast 159 183 3,300  Level Washington Center
05:35PM 38.7172 -75.7539 130° Southeast 157 181 3,300  Level Washington Center
05:36PM 38.6881 -75.7139 133° Southeast 152 175 3,300 -60 Level Washington Center
05:37PM 38.6631 -75.6714 127° Southeast 153 176 3,200 -60 Descending Washington Center
05:38PM 38.6339 -75.6289 131° Southeast 156 180 3,200  Level Washington Center
05:39PM 38.6047 -75.5811 128° Southeast 158 182 3,200  Level Washington Center
05:40PM 38.5797 -75.5411 129° Southeast 154 177 3,200  Level Washington Center
05:41PM 38.5506 -75.4908 127° Southeast 157 181 3,200  Level Washington Center
05:42PM 38.5214 -75.4536 135° Southeast 158 182 3,300 -180 Climbing Washington Center
05:43PM 38.4942 -75.4086 128° Southeast 159 183 2,900 -420 Descending Washington Center
05:44PM 38.4647 -75.3689 133° Southeast 158 182 2,500 -300 Descending Washington Center
05:45PM 38.4356 -75.3214 128° Southeast 161 185 2,300 -240 Descending Washington Center
05:47PM 38.3935 -75.2635 129° Southeast  Level FlightAware Approximate
05:54PM 38.3104 -75.1240 129° Southeast  Level Estimated
05:55PM 38.3104 -75.1240 129° Southeast  Level Estimated
05:56PM 38.3104 -75.1240 129° Southeast  Level Estimated